Pagrindinis puslapis
METAR-TAF:

METAR-TAF

Oro uostai :

Kisarazu, Japonija

platuma: 35-24N, ilguma: 139-55E, Aukštis: 3 m

Dabartinis oras

Ataskaita buvo paskelbta 10 valandos ir 39 minutes, ne 04:30 UTC
Vėjas 8 kt iš Šiaurės/Šiaurės Rytų
Temperatūra 7°C
Drėgmė 87%
Slėgis 1022 hPa
Matomumas: 7000 m
Mažai debesys ne aukštis 800 ft
Su prošvaistėmis ne aukštis 2500 ft
Su prošvaistėmis ne aukštis 5000 ft
lietus

METAR: RJTK 070430Z 03008KT 7000 -RA FEW008 BKN025 BKN050 07/05 Q1022 RMK 1ST008 5SC025 7SC050 A3018

Laikas: 00:09 (15:09 UTC)


TAF: trūkstamas

Orai ataskaitas ir orų prognozės (METAR, TAF).

turimą stotys yra geltonos ir raudonos taškus žemėlapyje.

Perkelti pele per norėdami pamatyti stoties vardą.

Tada spustelėkite, norėdami matyti oro stebėjimo ir prognozės.

Norėdami pakeisti žemėlapį: spustelėkite ant žalios mygtukų su juodo kryžiaus žemyn,; žalią mygtuką su brūkšneliu, jei norite nutolinti; arba žalių rodyklių gretimoms žemėlapius.


METAR-TAF: